Time;durP1;ratioP1;P1;durP2;ratioP2;P2;SDS_P1;SDS_P2;PMS_P1;PMS_P2;Temp;Humidity;BMP_temperature;BMP_pressure;BME280_temperature;BME280_humidity;BME280_pressure;Samples;Min_cycle;Max_cycle;Signal;HPM_P1;HPM_P2
2023/08/15 00:00:36;;;;;;;6.60;3.00;;;;;;;23.76;39.79;94190.53;5023026;28;20193;-79
2023/08/15 00:03:02;;;;;;;9.45;3.40;;;;;;;23.78;39.97;94190.94;5022936;28;20063;-79
2023/08/15 00:05:27;;;;;;;8.35;3.92;;;;;;;23.75;40.34;94180.03;5022946;28;20030;-79
2023/08/15 00:07:53;;;;;;;8.80;3.20;;;;;;;23.71;40.03;94187.41;5022689;28;20030;-79
2023/08/15 00:10:18;;;;;;;13.95;3.20;;;;;;;23.65;40.29;94184.34;5022725;28;20073;-79
2023/08/15 00:12:44;;;;;;;7.22;2.88;;;;;;;23.60;40.09;94187.44;5023147;28;20026;-79
2023/08/15 00:15:09;;;;;;;7.78;3.30;;;;;;;23.56;40.21;94178.50;5022909;28;20032;-80
2023/08/15 00:17:35;;;;;;;6.35;3.35;;;;;;;23.57;40.36;94180.81;5022801;28;20109;-79
2023/08/15 00:20:00;;;;;;;8.05;3.35;;;;;;;23.60;40.58;94177.31;5022926;28;20366;-79
2023/08/15 00:22:26;;;;;;;7.43;3.60;;;;;;;23.59;40.53;94169.53;5021646;28;20049;-79
2023/08/15 00:24:51;;;;;;;8.18;3.33;;;;;;;23.58;40.68;94174.22;5022617;28;20025;-79
2023/08/15 00:27:18;;;;;;;9.38;2.67;;;;;;;23.60;40.91;94173.81;5022767;28;20030;-79
2023/08/15 00:29:43;;;;;;;7.60;2.92;;;;;;;23.59;40.77;94178.50;5021868;28;20030;-79
2023/08/15 00:32:09;;;;;;;8.20;3.13;;;;;;;23.60;41.13;94168.38;5022840;28;20052;-80
2023/08/15 00:34:34;;;;;;;5.13;3.50;;;;;;;23.56;40.95;94167.59;5022657;28;20135;-80
2023/08/15 00:37:00;;;;;;;5.38;2.78;;;;;;;23.51;40.70;94149.72;5022408;28;20046;-80
2023/08/15 00:39:25;;;;;;;7.10;3.20;;;;;;;23.49;40.97;94151.25;5022592;28;20025;-80
2023/08/15 00:41:50;;;;;;;5.80;2.80;;;;;;;23.46;41.31;94152.06;5021565;28;20037;-80
2023/08/15 00:44:16;;;;;;;7.22;2.80;;;;;;;23.41;41.38;94145.84;5021639;28;20030;-80
2023/08/15 00:46:41;;;;;;;7.93;3.17;;;;;;;23.32;41.32;94150.09;5025220;28;20037;-79
2023/08/15 00:49:07;;;;;;;7.05;3.40;;;;;;;23.27;41.63;94140.38;5026123;28;20041;-80
2023/08/15 00:51:33;;;;;;;13.02;3.33;;;;;;;23.23;42.06;94155.94;5026190;28;20029;-80
2023/08/15 00:53:59;;;;;;;6.03;2.90;;;;;;;23.14;42.18;94147.34;5026256;28;20064;-79
2023/08/15 00:56:25;;;;;;;6.05;2.60;;;;;;;23.08;42.25;94154.34;5025088;28;20376;-79
2023/08/15 00:58:50;;;;;;;10.40;3.28;;;;;;;23.04;41.95;94138.03;5026091;28;20049;-79
2023/08/15 01:01:17;;;;;;;5.93;2.67;;;;;;;23.05;41.65;94142.31;5026259;28;20034;-79
2023/08/15 01:03:42;;;;;;;5.03;3.20;;;;;;;23.03;42.59;94141.91;5026058;28;20104;-79
2023/08/15 01:06:08;;;;;;;5.90;3.05;;;;;;;23.00;42.60;94138.00;5026058;28;20021;-80
2023/08/15 01:08:34;;;;;;;4.90;3.08;;;;;;;22.98;42.39;94134.88;5026059;28;20025;-79
2023/08/15 01:11:00;;;;;;;6.28;2.67;;;;;;;22.96;42.96;94130.97;5025676;28;20042;-79
2023/08/15 01:13:42;;;;;;;4.60;2.83;;;;;;;22.93;43.43;94127.09;5025927;28;20076;-79
2023/08/15 01:16:14;;;;;;;9.05;3.05;;;;;;;22.88;43.83;94121.25;5025791;28;20284;-79
2023/08/15 01:18:43;;;;;;;;;;;;;;;22.81;43.46;94108.44;5026174;28;20033;-79
2023/08/15 01:21:13;;;;;;;6.47;2.72;;;;;;;22.76;43.84;94119.69;5025916;28;20076;-79
2023/08/15 01:23:49;;;;;;;5.80;3.20;;;;;;;22.75;44.65;94126.28;5025724;28;20045;-79
2023/08/15 01:26:14;;;;;;;7.55;3.55;;;;;;;22.71;44.35;94126.25;5025839;28;20072;-79
2023/08/15 01:28:40;;;;;;;6.50;3.70;;;;;;;22.63;44.78;94135.56;5025584;28;20038;-79
2023/08/15 01:31:12;;;;;;;8.98;3.15;;;;;;;22.67;44.84;94122.75;5025599;28;20319;-79
2023/08/15 01:33:49;;;;;;;9.05;2.92;;;;;;;22.63;44.72;94128.19;5025651;28;20096;-79
2023/08/15 01:36:21;;;;;;;13.93;4.13;;;;;;;22.54;45.40;94127.00;5025445;28;20068;-79
2023/08/15 01:38:54;;;;;;;8.57;3.70;;;;;;;22.51;45.91;94128.53;5025649;28;20020;-79
2023/08/15 01:41:22;;;;;;;8.00;4.00;;;;;;;22.46;45.63;94118.03;5025438;28;20026;-79
2023/08/15 01:43:48;;;;;;;8.90;3.85;;;;;;;22.38;46.24;94124.59;5025235;28;20026;-79
2023/08/15 01:46:13;;;;;;;6.22;3.78;;;;;;;22.38;46.18;94117.22;5025446;28;20029;-79
2023/08/15 01:48:41;;;;;;;10.05;3.60;;;;;;;22.36;46.53;94113.34;5025267;28;20088;-79
2023/08/15 01:51:07;;;;;;;7.57;3.20;;;;;;;22.32;46.48;94115.28;5025416;28;20026;-80
2023/08/15 01:53:34;;;;;;;9.43;3.40;;;;;;;22.29;46.97;94110.59;5025046;28;20032;-79
2023/08/15 01:56:00;;;;;;;9.43;3.20;;;;;;;22.26;46.97;94105.94;5024530;28;20346;-80
2023/08/15 01:58:25;;;;;;;5.50;3.30;;;;;;;22.22;47.43;94114.78;5025217;28;20038;-80
2023/08/15 02:00:51;;;;;;;4.13;2.78;;;;;;;22.19;48.12;94107.44;5025110;28;20033;-80
2023/08/15 02:03:16;;;;;;;6.82;3.28;;;;;;;22.12;48.06;94107.38;5025039;28;20093;-79
2023/08/15 02:05:41;;;;;;;5.53;3.33;;;;;;;22.04;47.69;94101.16;5024802;28;20102;-79
2023/08/15 02:08:07;;;;;;;5.93;3.60;;;;;;;21.99;48.33;94108.88;5024874;28;20042;-78
2023/08/15 02:10:32;;;;;;;10.02;3.40;;;;;;;21.88;48.94;94110.75;5024709;28;20046;-78
2023/08/15 02:12:58;;;;;;;9.50;4.05;;;;;;;21.81;49.67;94104.13;5024804;28;20029;-79
2023/08/15 02:15:23;;;;;;;6.00;3.72;;;;;;;21.77;49.92;94106.03;5024678;28;20085;-78
2023/08/15 02:17:49;;;;;;;8.00;3.53;;;;;;;21.71;49.68;94109.47;5024846;28;20025;-78
2023/08/15 02:20:14;;;;;;;6.95;3.13;;;;;;;21.70;49.66;94113.38;5024802;28;20464;-81
2023/08/15 02:22:40;;;;;;;5.47;3.45;;;;;;;21.66;50.17;94099.78;5024607;28;20021;-80
2023/08/15 02:25:05;;;;;;;7.45;3.85;;;;;;;21.61;50.27;94097.41;5024668;28;20250;-81
2023/08/15 02:27:31;;;;;;;11.82;3.80;;;;;;;21.59;50.40;94103.19;5024294;28;20093;-80
2023/08/15 02:29:56;;;;;;;9.35;3.50;;;;;;;21.57;50.49;94100.09;5024741;28;20097;-80
2023/08/15 02:32:22;;;;;;;9.27;3.88;;;;;;;21.54;50.91;94105.50;5024427;28;20089;-79
2023/08/15 02:34:47;;;;;;;9.07;3.63;;;;;;;21.51;51.36;94111.66;5024303;28;20071;-80
2023/08/15 02:37:13;;;;;;;6.65;3.42;;;;;;;21.48;51.11;94107.78;5024374;28;20049;-80
2023/08/15 02:40:23;;;;;;;8.27;3.40;;;;;;;21.49;51.33;94108.56;5024228;28;20033;-80
2023/08/15 02:42:48;;;;;;;6.10;3.30;;;;;;;21.44;50.39;94110.47;5037208;28;20021;-80
2023/08/15 02:45:13;;;;;;;13.52;3.25;;;;;;;21.43;49.69;94111.63;5022129;28;20363;-80
2023/08/15 02:47:39;;;;;;;5.53;3.38;;;;;;;21.45;49.51;94111.22;5023415;28;20033;-80
2023/08/15 02:50:05;;;;;;;13.88;3.95;;;;;;;21.40;49.05;94117.75;5023773;28;20025;-81
2023/08/15 02:52:30;;;;;;;7.82;4.30;;;;;;;21.38;49.04;94113.88;5023889;28;20247;-80
2023/08/15 02:54:56;;;;;;;9.50;4.82;;;;;;;21.35;49.14;94110.00;5023944;28;20018;-80
2023/08/15 02:57:21;;;;;;;10.48;4.13;;;;;;;21.34;48.66;94108.41;5024140;28;20018;-80
2023/08/15 02:59:47;;;;;;;14.02;3.95;;;;;;;21.31;48.55;94108.38;5023926;28;20334;-80
2023/08/15 03:02:13;;;;;;;8.70;3.83;;;;;;;21.32;48.61;94105.31;5022834;28;20029;-81
2023/08/15 03:04:39;;;;;;;5.28;3.40;;;;;;;21.32;48.27;94099.88;5023760;28;20041;-80
2023/08/15 03:07:04;;;;;;;8.63;4.35;;;;;;;21.30;48.47;94104.13;5022333;28;20024;-80
2023/08/15 03:09:30;;;;;;;7.28;3.55;;;;;;;21.29;48.44;94108.78;5023404;28;20095;-80
2023/08/15 03:11:55;;;;;;;7.10;4.07;;;;;;;21.27;48.31;94107.56;5023636;28;20315;-81
2023/08/15 03:14:21;;;;;;;11.75;3.92;;;;;;;21.22;48.44;94109.47;5022668;28;20063;-81
2023/08/15 03:16:46;;;;;;;7.40;4.07;;;;;;;21.17;48.99;94111.78;5022622;28;20018;-80
2023/08/15 03:19:12;;;;;;;10.90;4.05;;;;;;;21.14;49.27;94121.41;5023690;28;20093;-79
2023/08/15 03:21:37;;;;;;;10.45;3.60;;;;;;;21.15;49.90;94124.91;5022434;28;20037;-79
2023/08/15 03:24:03;;;;;;;7.40;3.58;;;;;;;21.15;49.85;94130.34;5023502;28;20043;-79
2023/08/15 03:26:28;;;;;;;6.65;3.80;;;;;;;21.15;50.46;94122.22;5023502;28;20224;-79
2023/08/15 03:28:56;;;;;;;10.75;3.55;;;;;;;21.17;50.35;94120.69;5023344;28;20034;-80
2023/08/15 03:31:21;;;;;;;8.55;3.63;;;;;;;21.14;49.73;94120.63;5023592;28;20022;-79
2023/08/15 03:33:47;;;;;;;7.65;3.65;;;;;;;21.09;50.24;94118.28;5023522;28;20342;-80
2023/08/15 03:36:12;;;;;;;6.75;4.00;;;;;;;21.10;49.58;94130.66;5023493;28;20022;-80
2023/08/15 03:38:38;;;;;;;9.23;3.95;;;;;;;21.17;50.58;94128.03;5023179;28;20083;-79
2023/08/15 03:41:05;;;;;;;13.10;3.65;;;;;;;21.20;50.39;94129.97;5023392;28;20276;-80
2023/08/15 03:43:31;;;;;;;11.15;3.90;;;;;;;21.21;50.47;94126.13;5023294;28;20075;-79
2023/08/15 03:45:57;;;;;;;11.52;3.80;;;;;;;21.25;50.74;94118.81;5023269;28;20044;-80
2023/08/15 03:48:23;;;;;;;18.00;3.90;;;;;;;21.31;50.78;94124.66;5022977;28;20030;-80
2023/08/15 03:50:49;;;;;;;9.25;3.90;;;;;;;21.34;50.69;94121.19;5023122;28;20033;-80
2023/08/15 03:53:15;;;;;;;13.80;4.63;;;;;;;21.29;50.58;94133.19;5023345;28;20041;-80
2023/08/15 03:55:40;;;;;;;10.50;4.15;;;;;;;21.34;50.16;94124.69;5023068;28;20220;-80
2023/08/15 03:58:05;;;;;;;7.45;3.83;;;;;;;21.35;49.79;94126.25;5023081;28;20017;-80
2023/08/15 04:00:31;;;;;;;14.75;4.25;;;;;;;21.36;49.58;94132.44;5023016;28;20072;-79
2023/08/15 04:02:57;;;;;;;8.15;4.78;;;;;;;21.38;49.91;94130.91;5022997;28;20049;-73
2023/08/15 04:05:24;;;;;;;9.63;4.07;;;;;;;21.43;49.34;94129.81;5022911;28;20033;-77
2023/08/15 04:07:49;;;;;;;11.18;4.28;;;;;;;21.46;48.23;94131.00;5022904;28;20228;-77
2023/08/15 04:10:15;;;;;;;14.43;3.95;;;;;;;21.50;48.51;94131.81;5022845;28;20050;-76
2023/08/15 04:12:40;;;;;;;9.15;4.10;;;;;;;21.51;47.91;94127.94;5022913;28;20097;-76
2023/08/15 04:15:06;;;;;;;15.35;3.60;;;;;;;21.58;47.99;94141.56;5022835;28;20037;-76
2023/08/15 04:17:32;;;;;;;11.15;3.80;;;;;;;21.61;48.54;94138.84;5022610;28;20018;-76
2023/08/15 04:19:57;;;;;;;10.23;3.70;;;;;;;21.68;47.77;94135.44;5025526;28;20068;-77
2023/08/15 04:22:22;;;;;;;5.65;3.60;;;;;;;21.66;47.64;94135.03;5026882;28;20022;-77
2023/08/15 04:24:48;;;;;;;11.75;3.80;;;;;;;21.70;46.68;94146.69;5026703;28;20041;-77
2023/08/15 04:27:13;;;;;;;19.33;4.22;;;;;;;21.75;46.40;94143.59;5026742;28;20028;-77
2023/08/15 04:29:39;;;;;;;10.32;3.45;;;;;;;21.76;46.58;94137.03;5025485;28;20091;-77
2023/08/15 04:32:04;;;;;;;7.40;3.47;;;;;;;21.83;47.27;94128.16;5026659;28;20346;-77
2023/08/15 04:34:30;;;;;;;11.10;3.88;;;;;;;21.83;47.05;94126.22;5026620;28;20073;-77
2023/08/15 04:36:55;;;;;;;8.52;3.38;;;;;;;21.81;47.30;94133.97;5026497;28;20041;-77
2023/08/15 04:39:23;;;;;;;8.65;3.83;;;;;;;;;;5026483;28;20080;-77
2023/08/15 04:41:49;;;;;;;9.18;3.75;;;;;;;21.83;46.98;94149.88;5026429;28;20053;-77
2023/08/15 04:44:14;;;;;;;7.90;4.07;;;;;;;21.88;47.73;94149.53;5026460;28;20057;-77
2023/08/15 04:46:40;;;;;;;10.15;3.55;;;;;;;21.94;47.12;94158.06;5026259;28;20022;-77
2023/08/15 04:49:05;;;;;;;13.00;3.80;;;;;;;21.95;47.55;94159.66;5026138;28;20022;-77
2023/08/15 04:51:31;;;;;;;14.10;4.30;;;;;;;21.97;47.87;94149.97;5026179;28;20022;-77
2023/08/15 04:53:56;;;;;;;17.27;4.53;;;;;;;22.02;47.15;94156.97;5026204;28;20056;-77
2023/08/15 04:56:22;;;;;;;18.08;4.05;;;;;;;22.06;47.42;94167.84;5026336;28;20288;-77
2023/08/15 04:58:47;;;;;;;11.90;4.20;;;;;;;22.06;48.34;94165.13;5026235;28;20427;-77
2023/08/15 05:01:13;;;;;;;18.02;4.53;;;;;;;22.05;47.42;94169.78;5026048;28;20025;-77
2023/08/15 05:03:39;;;;;;;18.35;4.05;;;;;;;22.08;47.45;94158.16;5025939;28;20036;-77
2023/08/15 05:06:04;;;;;;;13.75;4.05;;;;;;;22.06;46.53;94165.91;5026126;28;20037;-77
2023/08/15 05:08:29;;;;;;;13.15;3.80;;;;;;;22.09;47.32;94167.88;5025765;28;20219;-77
2023/08/15 05:10:55;;;;;;;15.27;4.43;;;;;;;22.06;48.02;94171.31;5025744;28;20046;-77
2023/08/15 05:13:21;;;;;;;20.58;4.38;;;;;;;22.02;48.43;94178.66;5025713;28;20338;-77
2023/08/15 05:15:46;;;;;;;15.07;4.00;;;;;;;22.04;47.76;94176.34;5026085;28;20025;-77
2023/08/15 05:18:15;;;;;;;7.40;3.53;;;;;;;22.07;47.84;94178.31;5025879;28;20097;-77
2023/08/15 05:20:41;;;;;;;12.02;4.32;;;;;;;22.06;48.42;94179.47;5025660;28;20046;-77
2023/08/15 05:23:06;;;;;;;19.88;4.53;;;;;;;22.08;48.24;94170.97;5025924;28;20026;-77
2023/08/15 05:25:31;;;;;;;9.68;4.13;;;;;;;22.06;48.06;94184.91;5025472;28;20043;-77
2023/08/15 05:27:57;;;;;;;8.32;5.43;;;;;;;22.08;47.76;94185.28;5025607;28;20029;-78
2023/08/15 05:30:22;;;;;;;9.88;4.55;;;;;;;22.12;47.40;94188.81;5023470;28;20076;-77
2023/08/15 05:32:48;;;;;;;10.55;3.65;;;;;;;22.14;47.49;94197.34;5025572;28;20041;-77
2023/08/15 05:35:13;;;;;;;5.65;3.08;;;;;;;22.16;47.61;94189.63;5024577;28;20093;-77
2023/08/15 05:37:39;;;;;;;13.85;3.88;;;;;;;22.15;47.79;94193.50;5025356;28;20244;-77
2023/08/15 05:40:05;;;;;;;6.38;3.55;;;;;;;22.15;47.99;94177.22;5025511;28;20025;-77
2023/08/15 05:42:30;;;;;;;6.75;3.60;;;;;;;22.09;48.25;94183.38;5025068;28;20216;-77
2023/08/15 05:44:56;;;;;;;7.38;3.80;;;;;;;22.03;48.69;94180.25;5025076;28;20022;-77
2023/08/15 05:47:21;;;;;;;8.90;3.60;;;;;;;21.98;49.16;94184.09;5024985;28;20076;-77
2023/08/15 05:49:47;;;;;;;8.18;3.63;;;;;;;22.02;49.24;94184.91;5025257;28;20030;-77
2023/08/15 05:52:12;;;;;;;7.35;3.72;;;;;;;22.00;49.52;94189.13;5025098;28;20037;-77
2023/08/15 05:54:38;;;;;;;6.35;3.53;;;;;;;21.98;49.49;94192.25;5025011;28;20037;-77
2023/08/15 05:57:04;;;;;;;12.88;3.28;;;;;;;21.97;49.47;94196.09;5025129;28;20068;-77
2023/08/15 05:59:29;;;;;;;5.32;2.95;;;;;;;21.99;49.49;94199.22;5024949;28;20026;-77
2023/08/15 06:01:55;;;;;;;5.18;3.60;;;;;;;21.98;49.49;94192.25;5024911;28;20025;-77
2023/08/15 06:04:20;;;;;;;9.70;3.65;;;;;;;21.98;49.21;94199.56;5024662;28;20025;-77
2023/08/15 06:06:46;;;;;;;7.60;3.70;;;;;;;21.97;49.62;94200.75;5024844;28;20334;-77
2023/08/15 06:09:11;;;;;;;8.35;3.80;;;;;;;21.94;49.51;94193.34;5024469;28;20038;-77
2023/08/15 06:11:37;;;;;;;4.95;3.35;;;;;;;21.92;49.76;94185.59;5024623;28;20397;-77
2023/08/15 06:14:05;;;;;;;10.85;3.72;;;;;;;21.95;49.73;94194.91;5024644;28;20232;-77
2023/08/15 06:16:31;;;;;;;7.28;3.58;;;;;;;21.97;49.73;94198.81;5024643;28;20026;-77
2023/08/15 06:18:56;;;;;;;14.20;4.32;;;;;;;21.98;49.42;94188.72;5024684;28;20211;-77
2023/08/15 06:21:22;;;;;;;11.25;3.50;;;;;;;22.02;49.88;94201.19;5024793;28;20296;-77
2023/08/15 06:23:47;;;;;;;9.90;3.95;;;;;;;22.03;49.69;94197.28;5024617;28;20200;-77
2023/08/15 06:26:12;;;;;;;13.65;4.43;;;;;;;22.05;49.76;94196.94;5023553;28;20038;-77
2023/08/15 06:28:38;;;;;;;6.68;3.47;;;;;;;22.06;49.78;94206.59;5024254;28;20018;-77
2023/08/15 06:31:03;;;;;;;12.07;4.10;;;;;;;22.08;49.81;94189.94;5024330;28;20332;-77
2023/08/15 06:33:29;;;;;;;11.00;3.65;;;;;;;22.12;49.63;94193.47;5024408;28;20018;-76
2023/08/15 06:35:54;;;;;;;9.45;3.92;;;;;;;22.09;49.61;94208.59;5024214;28;20022;-77
2023/08/15 06:38:20;;;;;;;7.95;3.50;;;;;;;22.09;50.04;94205.88;5024004;28;20022;-76
2023/08/15 06:40:45;;;;;;;11.05;4.00;;;;;;;22.02;50.38;94212.03;5024190;28;20132;-79
2023/08/15 06:43:10;;;;;;;14.18;3.85;;;;;;;22.02;50.94;94212.03;5023128;28;20091;-76
2023/08/15 06:45:37;;;;;;;10.40;4.20;;;;;;;22.03;52.00;94212.81;5023909;28;20018;-76
2023/08/15 06:48:05;;;;;;;8.20;4.18;;;;;;;22.06;52.46;94211.25;5031473;28;20040;-76
2023/08/15 06:50:30;;;;;;;13.40;4.88;;;;;;;22.11;52.91;94208.97;5024040;28;20076;-76
2023/08/15 06:52:56;;;;;;;12.63;3.35;;;;;;;22.15;53.26;94209.78;5024047;28;20227;-76
2023/08/15 06:55:21;;;;;;;18.77;4.18;;;;;;;22.17;53.01;94207.47;5023877;28;20026;-77
2023/08/15 06:57:46;;;;;;;7.65;3.20;;;;;;;22.19;53.12;94213.31;5022600;28;20291;-77
2023/08/15 07:00:13;;;;;;;8.18;3.50;;;;;;;22.21;53.54;94205.56;5024046;28;20058;-75
2023/08/15 07:02:39;;;;;;;6.22;3.67;;;;;;;22.18;53.83;94219.88;5023783;28;20216;-75
2023/08/15 07:05:05;;;;;;;9.80;4.20;;;;;;;22.22;54.28;94222.63;5023868;28;20026;-75
2023/08/15 07:07:31;;;;;;;10.85;4.80;;;;;;;22.28;53.83;94213.00;5023817;28;20026;-76
2023/08/15 07:09:57;;;;;;;8.30;4.20;;;;;;;22.30;53.82;94220.75;5022460;28;20052;-75
2023/08/15 07:12:22;;;;;;;10.80;4.55;;;;;;;22.35;53.56;94207.63;5023767;28;20379;-75
2023/08/15 07:14:48;;;;;;;8.02;4.68;;;;;;;22.39;53.74;94215.78;5023506;28;20075;-76
2023/08/15 07:17:13;;;;;;;14.50;5.40;;;;;;;22.37;53.66;94216.16;5023800;28;20025;-75
2023/08/15 07:19:39;;;;;;;12.32;5.45;;;;;;;22.39;53.86;94219.28;5023585;28;20032;-76
2023/08/15 07:22:04;;;;;;;11.63;4.47;;;;;;;22.46;53.58;94217.75;5023580;28;20197;-78
2023/08/15 07:24:30;;;;;;;10.13;3.95;;;;;;;22.51;53.95;94215.47;5023313;28;20022;-78
2023/08/15 07:26:55;;;;;;;9.85;4.32;;;;;;;22.54;53.47;94225.56;5023527;28;20006;-77
2023/08/15 07:29:21;;;;;;;8.82;4.07;;;;;;;22.55;54.28;94227.13;5023342;28;20030;-75
2023/08/15 07:31:46;;;;;;;8.98;4.05;;;;;;;22.58;53.59;94220.91;5023456;28;20362;-75
2023/08/15 07:34:11;;;;;;;6.63;3.75;;;;;;;22.61;53.94;94228.31;5023220;28;20347;-76
2023/08/15 07:36:37;;;;;;;15.43;4.35;;;;;;;22.60;53.57;94218.59;5023088;28;20096;-79
2023/08/15 07:39:03;;;;;;;9.93;4.57;;;;;;;22.64;53.60;94213.97;5023528;28;20018;-79
2023/08/15 07:41:29;;;;;;;13.35;3.97;;;;;;;22.62;53.98;94219.00;5023010;28;20029;-78
2023/08/15 07:43:54;;;;;;;14.05;4.95;;;;;;;22.58;54.22;94215.47;5022158;28;20026;-79
2023/08/15 07:46:19;;;;;;;13.35;4.65;;;;;;;22.56;53.64;94223.22;5023129;28;20104;-77
2023/08/15 07:48:46;;;;;;;18.00;5.03;;;;;;;22.59;53.78;94219.78;5023544;28;20036;-76
2023/08/15 07:51:11;;;;;;;9.43;4.10;;;;;;;22.61;54.21;94217.44;5023743;28;20038;-76
2023/08/15 07:53:37;;;;;;;13.73;4.47;;;;;;;22.59;54.17;94217.06;5023275;28;20220;-76
2023/08/15 07:56:02;;;;;;;16.52;4.97;;;;;;;22.66;53.81;94218.25;5023429;28;20048;-76
2023/08/15 07:58:28;;;;;;;17.52;5.18;;;;;;;22.69;53.81;94220.97;5023321;28;20201;-76
2023/08/15 08:00:53;;;;;;;7.45;4.80;;;;;;;22.69;53.75;94225.63;5022196;28;20026;-76
2023/08/15 08:03:19;;;;;;;9.57;4.28;;;;;;;22.68;53.87;94218.66;5022071;28;20052;-76
2023/08/15 08:05:45;;;;;;;10.40;4.43;;;;;;;22.74;53.60;94223.31;5023489;28;20041;-76
2023/08/15 08:08:12;;;;;;;11.35;5.45;;;;;;;22.80;53.52;94215.59;5022919;28;20057;-76
2023/08/15 08:10:38;;;;;;;14.70;4.63;;;;;;;22.79;53.44;94212.06;5023039;28;20037;-76
2023/08/15 08:13:06;;;;;;;18.42;4.40;;;;;;;22.83;53.26;94215.59;5022729;28;20037;-76
2023/08/15 08:15:31;;;;;;;14.80;4.72;;;;;;;22.83;53.11;94218.28;5022792;28;20150;-77
2023/08/15 08:17:57;;;;;;;12.85;5.07;;;;;;;22.81;53.61;94215.19;5021760;28;20216;-78
2023/08/15 08:20:23;;;;;;;19.30;4.88;;;;;;;22.71;54.04;94215.16;5022859;28;20022;-78
2023/08/15 08:22:48;;;;;;;14.10;5.32;;;;;;;22.65;53.31;94217.44;5022822;28;20022;-76
2023/08/15 08:25:19;;;;;;;11.02;4.63;;;;;;;22.59;53.01;94224.41;5021447;28;20029;-76
2023/08/15 08:27:45;;;;;;;8.73;4.60;;;;;;;22.52;53.14;94219.72;5022789;28;20041;-75
2023/08/15 08:30:12;;;;;;;14.55;5.13;;;;;;;22.49;53.04;94225.13;5022565;28;20307;-75
2023/08/15 08:32:37;;;;;;;19.23;5.15;;;;;;;22.53;52.66;94221.28;5022476;28;20037;-76
2023/08/15 08:35:05;;;;;;;12.90;5.30;;;;;;;22.47;52.81;94220.09;5022765;28;20256;-75
2023/08/15 08:37:31;;;;;;;17.58;5.47;;;;;;;22.46;53.38;94218.53;5022547;28;20026;-75
2023/08/15 08:39:56;;;;;;;13.05;4.53;;;;;;;22.40;53.71;94214.63;5022404;28;20097;-75
2023/08/15 08:42:22;;;;;;;17.17;5.53;;;;;;;22.49;53.20;94223.22;5022721;28;20030;-75
2023/08/15 08:44:48;;;;;;;16.15;5.07;;;;;;;22.42;54.22;94201.44;5022669;28;20352;-75
2023/08/15 08:47:15;;;;;;;11.77;4.90;;;;;;;22.41;53.83;94206.09;5022755;28;20109;-75
2023/08/15 08:49:42;;;;;;;16.58;5.35;;;;;;;22.54;53.48;94203.81;5021209;28;20026;-74
2023/08/15 08:52:08;;;;;;;9.07;4.80;;;;;;;22.64;53.32;94196.88;5021389;28;20034;-75
2023/08/15 08:54:34;;;;;;;17.92;5.15;;;;;;;22.62;52.98;94199.97;5022515;28;20032;-74
2023/08/15 08:57:00;;;;;;;24.70;5.65;;;;;;;22.60;53.66;94205.00;5022342;28;20030;-74
2023/08/15 08:59:28;;;;;;;10.52;5.10;;;;;;;22.61;53.36;94203.06;5022384;28;20026;-75
2023/08/15 09:01:53;;;;;;;12.02;5.30;;;;;;;22.57;53.53;94197.66;5021321;28;20263;-75
2023/08/15 09:04:21;;;;;;;16.92;5.72;;;;;;;22.54;54.22;94198.38;5022535;28;20026;-76
2023/08/15 09:06:47;;;;;;;13.65;4.78;;;;;;;22.60;54.02;94204.25;5023567;28;20255;-76
2023/08/15 09:09:12;;;;;;;9.88;4.70;;;;;;;22.58;54.19;94199.19;5024692;28;20029;-74
2023/08/15 09:11:38;;;;;;;16.52;5.25;;;;;;;22.57;54.27;94205.78;5025897;28;20140;-74
2023/08/15 09:14:05;;;;;;;12.00;5.45;;;;;;;22.60;54.17;94196.88;5025913;28;20022;-75
2023/08/15 09:16:31;;;;;;;13.27;5.22;;;;;;;22.60;54.89;94201.53;5025637;28;20048;-75
2023/08/15 09:19:00;;;;;;;12.13;5.45;;;;;;;22.67;54.78;94195.34;5025818;28;20044;-74
2023/08/15 09:21:29;;;;;;;14.40;5.05;;;;;;;22.55;54.47;94191.00;5025596;28;20097;-75
2023/08/15 09:23:57;;;;;;;16.15;5.47;;;;;;;22.50;55.26;94197.59;5025670;28;20021;-74
2023/08/15 09:26:23;;;;;;;20.75;5.40;;;;;;;22.63;54.97;94190.69;5025668;28;20025;-75
2023/08/15 09:28:49;;;;;;;13.85;6.70;;;;;;;22.61;55.07;94194.91;5024388;28;20133;-78
2023/08/15 09:31:15;;;;;;;11.05;4.55;;;;;;;22.74;54.11;94195.38;5025619;28;20037;-75
2023/08/15 09:33:41;;;;;;;13.30;5.55;;;;;;;22.74;54.45;94187.22;5024633;28;20148;-75
2023/08/15 09:36:08;;;;;;;8.52;5.20;;;;;;;22.63;55.59;94190.69;5024447;28;20339;-75
2023/08/15 09:38:37;;;;;;;12.30;5.70;;;;;;;22.66;57.11;94182.94;5024151;28;20304;-75
2023/08/15 09:41:03;;;;;;;11.20;5.10;;;;;;;22.76;56.85;94191.13;5025324;28;20033;-75
2023/08/15 09:43:29;;;;;;;9.02;5.68;;;;;;;22.93;56.68;94186.13;5025733;28;20036;-76
2023/08/15 09:45:57;;;;;;;12.27;5.35;;;;;;;23.02;56.31;94184.63;5024263;28;20026;-74
2023/08/15 09:48:22;;;;;;;16.27;4.93;;;;;;;23.06;55.32;94183.84;5024932;28;20030;-74
2023/08/15 09:50:48;;;;;;;13.77;6.07;;;;;;;22.95;55.22;94184.56;5025386;28;20036;-74
2023/08/15 09:53:15;;;;;;;18.58;5.88;;;;;;;22.95;55.66;94181.06;5025421;28;20040;-75
2023/08/15 09:55:41;;;;;;;12.38;5.25;;;;;;;23.08;55.49;94178.81;5024906;28;20033;-75
2023/08/15 09:58:07;;;;;;;21.20;6.50;;;;;;;23.10;55.33;94179.19;5025124;28;20022;-76
2023/08/15 10:00:36;;;;;;;12.48;5.90;;;;;;;23.26;54.66;94171.44;5025002;28;20256;-74
2023/08/15 10:03:15;;;;;;;10.23;5.05;;;;;;;23.13;54.91;94171.06;5024930;28;20029;-74
2023/08/15 10:05:45;;;;;;;9.40;5.13;;;;;;;23.01;55.92;94176.81;5024793;28;20017;-74
2023/08/15 10:08:10;;;;;;;14.93;6.00;;;;;;;23.06;56.22;94183.84;5024716;28;20224;-74
2023/08/15 10:10:37;;;;;;;10.18;5.22;;;;;;;23.16;55.61;94178.44;5024570;28;20038;-74
2023/08/15 10:13:04;;;;;;;8.40;4.72;;;;;;;23.14;55.88;94179.97;5024785;28;20021;-73
2023/08/15 10:15:32;;;;;;;11.18;4.90;;;;;;;23.08;54.82;94186.94;5024882;28;20041;-74
2023/08/15 10:17:58;;;;;;;21.25;6.10;;;;;;;23.20;54.36;94192.84;5024233;28;20044;-74
2023/08/15 10:20:23;;;;;;;9.02;5.32;;;;;;;23.14;54.71;94179.97;5024747;28;20093;-73
2023/08/15 10:22:52;;;;;;;13.57;5.95;;;;;;;23.15;55.02;94184.28;5024714;28;20331;-75
2023/08/15 10:25:24;;;;;;;12.45;5.95;;;;;;;23.13;55.36;94181.16;5024474;28;20037;-73
2023/08/15 10:27:52;;;;;;;14.75;4.85;;;;;;;23.28;54.53;94180.00;5022619;28;20022;-73
2023/08/15 10:30:46;;;;;;;10.70;4.72;;;;;;;23.42;54.83;94180.03;5021470;28;20216;-74
2023/08/15 10:33:14;;;;;;;12.80;5.10;;;;;;;23.46;55.65;94185.47;5022642;28;20104;-74
2023/08/15 10:36:02;;;;;;;7.32;5.15;;;;;;;23.55;54.74;94187.81;5023033;28;20026;-75
2023/08/15 10:38:35;;;;;;;10.75;5.05;;;;;;;23.67;53.69;94179.28;5022390;28;20072;-74
2023/08/15 10:41:06;;;;;;;9.80;5.07;;;;;;;23.77;53.61;94185.91;5023097;28;20030;-74
2023/08/15 10:43:34;;;;;;;7.28;4.47;;;;;;;23.83;52.21;94187.06;5021735;28;20271;-73
2023/08/15 10:46:02;;;;;;;19.10;5.55;;;;;;;23.86;51.35;94193.69;5023018;28;20072;-73
2023/08/15 10:48:43;;;;;;;13.20;4.75;;;;;;;23.71;51.03;94190.16;5022840;28;20030;-73
2023/08/15 10:51:20;;;;;;;9.52;4.93;;;;;;;23.76;50.05;94193.25;5022702;28;20034;-74
2023/08/15 10:53:53;;;;;;;12.57;4.75;;;;;;;23.78;48.66;94184.75;5022930;28;20028;-73
2023/08/15 10:56:21;;;;;;;13.00;4.35;;;;;;;23.85;48.35;94187.44;5022809;28;20032;-74
2023/08/15 10:58:47;;;;;;;9.93;4.65;;;;;;;23.96;47.98;94190.19;5023044;28;20220;-74
2023/08/15 11:01:20;;;;;;;14.73;4.75;;;;;;;24.00;48.29;94193.69;5022846;28;20030;-74
2023/08/15 11:03:50;;;;;;;13.48;4.10;;;;;;;24.11;48.23;94188.97;5022287;28;20204;-73
2023/08/15 11:06:16;;;;;;;9.48;4.00;;;;;;;24.17;47.71;94197.53;5021737;28;20034;-74
2023/08/15 11:08:48;;;;;;;13.35;3.88;;;;;;;24.07;46.84;94196.38;5022320;28;20052;-74
2023/08/15 11:11:14;;;;;;;9.90;3.80;;;;;;;24.12;47.04;94190.53;5022193;28;20054;-74
2023/08/15 11:13:41;;;;;;;8.85;4.10;;;;;;;24.05;46.68;94196.00;5022109;28;20029;-73
2023/08/15 11:16:08;;;;;;;10.80;3.90;;;;;;;24.12;46.89;94193.28;5022096;28;20398;-73
2023/08/15 11:18:35;;;;;;;8.43;4.55;;;;;;;24.15;46.81;94189.75;5022141;28;20022;-73
2023/08/15 11:21:01;;;;;;;10.07;4.43;;;;;;;24.12;47.04;94178.84;5022326;28;20034;-74
2023/08/15 11:23:28;;;;;;;8.05;4.25;;;;;;;24.19;46.69;94187.78;5022114;28;20379;-73
2023/08/15 11:26:01;;;;;;;10.25;4.38;;;;;;;24.27;46.90;94177.66;5022360;28;20029;-73